createdAt,value
2023-02-20T00:01:55.971Z,46.09
2023-02-20T00:04:24.533Z,45.85
2023-02-20T00:06:53.183Z,46.09
2023-02-20T00:09:21.391Z,46.04
2023-02-20T00:11:49.996Z,46.08
2023-02-20T00:14:18.330Z,46.06
2023-02-20T00:16:48.088Z,45.98
2023-02-20T00:19:16.433Z,46.12
2023-02-20T00:21:50.309Z,46.03
2023-02-20T00:24:19.438Z,45.67
2023-02-20T00:26:52.536Z,46.22
2023-02-20T00:29:23.741Z,46.21
2023-02-20T00:31:56.354Z,46.10
2023-02-20T00:34:29.591Z,46.36
2023-02-20T00:36:58.213Z,46.15
2023-02-20T00:39:26.417Z,46.05
2023-02-20T00:41:56.621Z,46.14
2023-02-20T00:44:25.381Z,46.18
2023-02-20T00:46:55.265Z,46.11
2023-02-20T00:49:23.603Z,46.29
2023-02-20T00:51:53.858Z,46.39
2023-02-20T00:54:22.290Z,46.20
2023-02-20T00:56:50.877Z,46.12
2023-02-20T00:59:19.255Z,46.33
2023-02-20T01:01:49.246Z,46.38
2023-02-20T01:04:17.563Z,46.58
2023-02-20T01:06:46.100Z,46.69
2023-02-20T01:09:14.411Z,46.35
2023-02-20T01:11:45.006Z,46.61
2023-02-20T01:14:14.402Z,46.30
2023-02-20T01:16:47.805Z,46.42
2023-02-20T01:19:16.477Z,46.62
2023-02-20T01:21:45.355Z,47.32
2023-02-20T01:24:13.728Z,46.79
2023-02-20T01:26:44.405Z,47.08
2023-02-20T01:29:13.465Z,47.58
2023-02-20T01:31:48.622Z,46.13
2023-02-20T01:34:18.593Z,46.96
2023-02-20T01:36:52.393Z,47.20
2023-02-20T01:39:23.724Z,46.54
2023-02-20T01:41:59.967Z,47.34
2023-02-20T01:44:31.385Z,46.73
2023-02-20T01:47:09.300Z,47.21
2023-02-20T01:50:08.982Z,46.76
2023-02-20T01:52:41.410Z,46.37
2023-02-20T01:55:21.150Z,46.41
2023-02-20T01:58:01.946Z,46.70
2023-02-20T02:00:30.929Z,46.62
2023-02-20T02:03:07.255Z,46.57
2023-02-20T02:05:37.884Z,47.93
2023-02-20T02:08:09.247Z,47.32
2023-02-20T02:11:03.009Z,46.85
2023-02-20T02:13:33.492Z,46.71
2023-02-20T02:16:22.447Z,47.84
2023-02-20T02:18:54.471Z,46.75
2023-02-20T02:21:22.855Z,48.44
2023-02-20T02:24:27.401Z,46.51
2023-02-20T02:27:14.381Z,46.69
2023-02-20T02:29:54.443Z,47.54
2023-02-20T02:32:36.403Z,47.70
2023-02-20T02:35:25.841Z,47.30
2023-02-20T02:38:16.524Z,47.18
2023-02-20T02:41:00.180Z,47.40
2023-02-20T02:43:50.702Z,47.07
2023-02-20T02:46:30.102Z,47.69
2023-02-20T02:49:07.635Z,47.89
2023-02-20T02:51:40.044Z,47.31
2023-02-20T02:54:13.507Z,47.05
2023-02-20T02:56:48.291Z,48.05
2023-02-20T02:59:35.352Z,48.12
2023-02-20T03:02:08.253Z,47.80
2023-02-20T03:04:38.444Z,47.61
2023-02-20T03:07:10.994Z,47.27
2023-02-20T03:09:43.492Z,47.80
2023-02-20T03:12:13.898Z,48.76
2023-02-20T03:15:10.283Z,47.35
2023-02-20T03:17:53.782Z,47.60
2023-02-20T03:20:23.266Z,47.55
2023-02-20T03:22:59.612Z,47.77
2023-02-20T03:25:35.285Z,48.00
2023-02-20T03:28:08.798Z,47.38
2023-02-20T03:30:47.901Z,48.40
2023-02-20T03:33:38.556Z,48.34
2023-02-20T03:36:29.330Z,47.47
2023-02-20T03:39:23.086Z,47.75
2023-02-20T03:42:11.371Z,47.74
2023-02-20T03:44:46.443Z,48.27
2023-02-20T03:47:17.733Z,48.22
2023-02-20T03:49:49.930Z,48.30
2023-02-20T03:52:18.966Z,47.31
2023-02-20T03:54:48.042Z,47.54
2023-02-20T03:57:27.659Z,47.97
2023-02-20T04:00:03.176Z,47.68
2023-02-20T04:02:40.200Z,47.74
2023-02-20T04:05:24.862Z,47.51
2023-02-20T04:08:02.140Z,48.01
2023-02-20T04:10:38.692Z,47.81
2023-02-20T04:13:07.979Z,48.01
2023-02-20T04:15:37.190Z,47.39
2023-02-20T04:18:09.844Z,47.62
2023-02-20T04:20:38.958Z,47.87
2023-02-20T04:23:23.792Z,47.43
2023-02-20T04:25:58.172Z,47.81
2023-02-20T04:28:29.517Z,47.08
2023-02-20T04:31:02.513Z,47.67
2023-02-20T04:33:33.043Z,47.35
2023-02-20T04:36:06.933Z,48.78
2023-02-20T04:38:35.431Z,46.93
2023-02-20T04:41:06.986Z,47.09
2023-02-20T04:43:36.666Z,46.81
2023-02-20T04:46:05.835Z,46.89
2023-02-20T04:48:35.982Z,46.77
2023-02-20T04:51:05.755Z,46.42
2023-02-20T04:53:35.461Z,45.86
2023-02-20T04:56:04.250Z,45.72
2023-02-20T04:58:37.214Z,45.34
2023-02-20T05:01:16.714Z,45.23
2023-02-20T05:03:45.192Z,44.96
2023-02-20T05:06:14.100Z,44.61
2023-02-20T05:08:42.733Z,44.66
2023-02-20T05:11:11.582Z,44.35
2023-02-20T05:13:39.981Z,44.04
2023-02-20T05:16:08.912Z,44.06
2023-02-20T05:18:37.146Z,43.70
2023-02-20T05:21:24.548Z,43.89
2023-02-20T05:23:52.763Z,43.61
2023-02-20T05:26:22.389Z,43.63
2023-02-20T05:28:50.529Z,43.90
2023-02-20T05:31:19.124Z,43.77
2023-02-20T05:33:47.420Z,43.53
2023-02-20T05:36:16.907Z,43.88
2023-02-20T05:38:48.666Z,43.68
2023-02-20T05:41:17.357Z,43.88
2023-02-20T05:43:46.274Z,44.03
2023-02-20T05:46:15.956Z,43.88
2023-02-20T05:48:44.228Z,44.19
2023-02-20T05:51:20.998Z,44.20
2023-02-20T05:53:49.158Z,44.06
2023-02-20T05:56:17.896Z,44.26
2023-02-20T05:58:46.655Z,44.28
2023-02-20T06:01:20.800Z,44.31
2023-02-20T06:03:49.075Z,44.53
2023-02-20T06:06:18.689Z,44.34
2023-02-20T06:08:47.638Z,44.49
2023-02-20T06:11:17.274Z,44.63
2023-02-20T06:13:46.578Z,44.63
2023-02-20T06:16:22.767Z,44.58
2023-02-20T06:18:51.062Z,44.57
2023-02-20T06:21:21.333Z,44.49
2023-02-20T06:23:51.538Z,44.38
2023-02-20T06:26:23.497Z,43.87
2023-02-20T06:28:52.479Z,44.10
2023-02-20T06:31:27.103Z,43.97
2023-02-20T06:33:55.346Z,43.94
2023-02-20T06:36:27.064Z,43.61
2023-02-20T06:38:57.957Z,43.50
2023-02-20T06:41:27.018Z,43.90
2023-02-20T06:43:55.289Z,43.74
2023-02-20T06:46:24.253Z,43.76
2023-02-20T06:48:55.649Z,43.83
2023-02-20T06:51:28.900Z,44.08
2023-02-20T06:53:57.712Z,43.80
2023-02-20T06:56:29.081Z,43.88
2023-02-20T06:58:58.524Z,43.89
2023-02-20T07:01:29.442Z,44.09
2023-02-20T07:03:58.944Z,44.19
2023-02-20T07:06:27.508Z,44.21
2023-02-20T07:08:55.620Z,44.23
2023-02-20T07:11:24.349Z,44.42
2023-02-20T07:13:52.496Z,44.31
2023-02-20T07:16:21.020Z,44.45
2023-02-20T07:18:49.178Z,44.72
2023-02-20T07:21:17.844Z,44.63
2023-02-20T07:23:46.113Z,44.92
2023-02-20T07:26:25.760Z,44.85
2023-02-20T07:28:55.053Z,45.25
2023-02-20T07:31:23.983Z,45.27
2023-02-20T07:33:52.169Z,45.44
2023-02-20T07:36:21.089Z,45.40
2023-02-20T07:39:00.506Z,45.18
2023-02-20T07:41:36.247Z,45.29
2023-02-20T07:44:15.679Z,45.54
2023-02-20T07:46:44.196Z,45.38
2023-02-20T07:49:12.256Z,45.49
2023-02-20T07:51:40.714Z,45.59
2023-02-20T07:54:08.824Z,45.80
2023-02-20T07:56:37.306Z,46.04
2023-02-20T07:59:05.522Z,46.27
2023-02-20T08:01:34.039Z,46.38
2023-02-20T08:04:02.264Z,46.34
2023-02-20T08:06:30.912Z,46.10
2023-02-20T08:08:59.060Z,46.29
2023-02-20T08:11:27.625Z,46.13
2023-02-20T08:13:55.882Z,46.35
2023-02-20T08:16:25.029Z,46.30
2023-02-20T08:18:53.667Z,46.35
2023-02-20T08:21:22.189Z,46.61
2023-02-20T08:23:50.463Z,46.47
2023-02-20T08:26:19.450Z,46.43
2023-02-20T08:28:48.971Z,46.35
2023-02-20T08:31:31.138Z,46.68
2023-02-20T08:34:00.216Z,46.33
2023-02-20T08:36:28.948Z,46.23
2023-02-20T08:38:58.076Z,46.31
2023-02-20T08:41:27.010Z,46.23
2023-02-20T08:43:55.285Z,46.61
2023-02-20T08:46:23.743Z,46.85
2023-02-20T08:48:51.964Z,47.04
2023-02-20T08:51:21.612Z,47.13
2023-02-20T08:53:49.765Z,47.16
2023-02-20T08:56:20.286Z,47.17
2023-02-20T08:58:48.439Z,47.13
2023-02-20T09:01:16.997Z,47.00
2023-02-20T09:03:45.098Z,47.17
2023-02-20T09:06:14.174Z,47.09
2023-02-20T09:08:42.423Z,46.92
2023-02-20T09:11:12.310Z,46.96
2023-02-20T09:13:47.670Z,46.98
2023-02-20T09:16:19.791Z,46.95
2023-02-20T09:18:49.216Z,47.04
2023-02-20T09:21:19.771Z,47.11
2023-02-20T09:23:48.773Z,46.86
2023-02-20T09:26:17.472Z,47.00
2023-02-20T09:28:45.776Z,46.77
2023-02-20T09:31:14.470Z,46.84
2023-02-20T09:33:51.120Z,46.79
2023-02-20T09:36:20.312Z,46.91
2023-02-20T09:38:48.651Z,46.85
2023-02-20T09:41:41.410Z,46.53
2023-02-20T09:44:41.335Z,46.34
2023-02-20T09:47:55.545Z,46.69
2023-02-20T09:50:31.187Z,46.68
2023-02-20T09:53:18.592Z,46.28
2023-02-20T09:55:48.120Z,46.37
2023-02-20T09:58:32.982Z,46.37
2023-02-20T10:01:03.378Z,46.28
2023-02-20T10:03:44.420Z,46.20
2023-02-20T10:06:20.891Z,46.08
2023-02-20T10:08:51.111Z,46.21
2023-02-20T10:11:50.630Z,45.84
2023-02-20T10:14:31.580Z,46.08
2023-02-20T10:17:13.603Z,46.02
2023-02-20T10:19:49.147Z,45.80
2023-02-20T10:22:29.162Z,45.63
2023-02-20T10:25:09.365Z,45.67
2023-02-20T10:27:40.716Z,45.74
2023-02-20T10:30:21.159Z,45.64
2023-02-20T10:32:54.754Z,45.59
2023-02-20T10:36:04.729Z,45.70
2023-02-20T10:38:44.638Z,45.46
2023-02-20T10:41:19.509Z,44.96
2023-02-20T10:43:54.057Z,44.74
2023-02-20T10:46:48.855Z,44.75
2023-02-20T10:49:55.846Z,44.18
2023-02-20T10:52:34.663Z,43.96
2023-02-20T10:55:19.124Z,43.48
2023-02-20T10:57:52.323Z,43.31
2023-02-20T11:00:28.521Z,43.16
2023-02-20T11:03:04.086Z,42.88
2023-02-20T11:05:39.664Z,42.87
2023-02-20T11:08:08.331Z,42.97
2023-02-20T11:10:39.269Z,43.06
2023-02-20T11:13:15.910Z,42.75
2023-02-20T11:15:44.698Z,42.89
2023-02-20T11:18:38.873Z,43.09
2023-02-20T11:21:07.267Z,43.05
2023-02-20T11:23:44.020Z,42.91
2023-02-20T11:26:21.122Z,43.09
2023-02-20T11:29:01.260Z,43.45
2023-02-20T11:31:30.080Z,43.09
2023-02-20T11:33:59.074Z,42.96
2023-02-20T11:36:38.292Z,43.29
2023-02-20T11:39:27.692Z,43.15
2023-02-20T11:42:25.273Z,43.40
2023-02-20T11:45:33.146Z,43.44
2023-02-20T11:48:18.576Z,43.58
2023-02-20T11:50:52.230Z,43.97
2023-02-20T11:53:25.843Z,43.99
2023-02-20T11:56:19.806Z,44.21
2023-02-20T11:58:48.179Z,44.39
2023-02-20T12:01:38.437Z,44.55
2023-02-20T12:04:19.774Z,45.06
2023-02-20T12:06:48.637Z,45.04
2023-02-20T12:09:24.520Z,45.31
2023-02-20T12:11:55.805Z,45.00
2023-02-20T12:14:25.158Z,45.43
2023-02-20T12:16:58.077Z,45.65
2023-02-20T12:19:41.619Z,45.78
2023-02-20T12:22:19.196Z,45.76
2023-02-20T12:25:10.913Z,45.74
2023-02-20T12:28:07.256Z,44.96
2023-02-20T12:31:11.179Z,44.15
2023-02-20T12:33:40.028Z,44.18
2023-02-20T12:36:24.661Z,44.37
2023-02-20T12:39:17.442Z,43.82
2023-02-20T12:41:57.889Z,43.37
2023-02-20T12:44:59.711Z,44.04
2023-02-20T12:47:35.300Z,44.07
2023-02-20T12:50:34.519Z,44.35
2023-02-20T12:53:13.691Z,44.47
2023-02-20T12:56:10.646Z,44.34
2023-02-20T12:58:51.590Z,44.43
2023-02-20T13:01:34.178Z,44.88
2023-02-20T13:04:18.198Z,44.96
2023-02-20T13:06:56.840Z,45.11
2023-02-20T13:09:29.335Z,44.93
2023-02-20T13:12:04.220Z,45.04
2023-02-20T13:15:03.451Z,45.28
2023-02-20T13:17:47.741Z,45.27
2023-02-20T13:20:21.281Z,45.37
2023-02-20T13:23:19.269Z,45.32
2023-02-20T13:25:49.654Z,45.17
2023-02-20T13:28:23.430Z,45.29
2023-02-20T13:31:20.902Z,45.44
2023-02-20T13:34:15.708Z,45.25
2023-02-20T13:36:48.953Z,45.34
2023-02-20T13:39:20.701Z,45.24
2023-02-20T13:41:54.927Z,45.56
2023-02-20T13:44:34.217Z,45.55
2023-02-20T13:47:03.796Z,45.27
2023-02-20T13:49:51.438Z,45.51
2023-02-20T13:52:41.928Z,45.35
2023-02-20T13:55:10.803Z,45.55
2023-02-20T13:57:52.427Z,45.53
2023-02-20T14:00:30.697Z,45.60
2023-02-20T14:02:58.827Z,45.52
2023-02-20T14:05:31.203Z,45.47
2023-02-20T14:08:00.426Z,45.54
2023-02-20T14:10:30.446Z,45.69
2023-02-20T14:13:02.301Z,45.75
2023-02-20T14:15:32.788Z,45.73
2023-02-20T14:18:01.846Z,45.66
2023-02-20T14:20:39.730Z,45.87
2023-02-20T14:23:09.125Z,45.81
2023-02-20T14:25:37.945Z,45.81
2023-02-20T14:28:14.651Z,45.80
2023-02-20T14:30:43.797Z,45.71
2023-02-20T14:33:22.634Z,45.86
2023-02-20T14:36:00.753Z,45.85
2023-02-20T14:38:50.188Z,45.96
2023-02-20T14:41:24.286Z,45.81
2023-02-20T14:44:01.986Z,45.88
2023-02-20T14:46:32.986Z,45.61
2023-02-20T14:49:09.195Z,45.75
2023-02-20T14:51:38.032Z,45.82
2023-02-20T14:54:24.458Z,45.60
2023-02-20T14:56:55.667Z,45.44
2023-02-20T14:59:33.812Z,45.26
2023-02-20T15:02:04.907Z,45.22
2023-02-20T15:04:33.196Z,45.64
2023-02-20T15:07:05.118Z,45.27
2023-02-20T15:09:41.853Z,45.24
2023-02-20T15:12:25.617Z,45.26
2023-02-20T15:14:57.712Z,45.31
2023-02-20T15:17:38.601Z,45.30
2023-02-20T15:20:30.011Z,45.40
2023-02-20T15:23:15.617Z,45.34
2023-02-20T15:25:44.767Z,45.36
2023-02-20T15:28:29.660Z,45.43
2023-02-20T15:31:09.968Z,45.37
2023-02-20T15:33:47.577Z,45.32
2023-02-20T15:36:18.750Z,45.34
2023-02-20T15:38:47.188Z,45.10
2023-02-20T15:41:15.643Z,45.29
2023-02-20T15:43:48.917Z,45.35
2023-02-20T15:46:20.630Z,45.30
2023-02-20T15:48:49.250Z,45.14
2023-02-20T15:51:22.539Z,45.15
2023-02-20T15:53:53.068Z,45.45
2023-02-20T15:56:21.486Z,45.45
2023-02-20T15:58:50.498Z,45.53
2023-02-20T16:01:18.839Z,45.66
2023-02-20T16:03:53.105Z,45.39
2023-02-20T16:06:23.224Z,45.30
2023-02-20T16:09:10.245Z,45.19
2023-02-20T16:11:41.943Z,44.96
2023-02-20T16:14:12.503Z,44.51
2023-02-20T16:16:44.038Z,44.46
2023-02-20T16:19:15.948Z,44.53
2023-02-20T16:21:56.959Z,44.13
2023-02-20T16:24:27.424Z,44.02
2023-02-20T16:26:55.945Z,43.83
2023-02-20T16:29:32.650Z,43.51
2023-02-20T16:32:01.333Z,43.62
2023-02-20T16:34:32.546Z,42.87
2023-02-20T16:37:02.205Z,42.89
2023-02-20T16:39:30.313Z,42.55
2023-02-20T16:41:59.559Z,42.84
2023-02-20T16:44:41.461Z,42.49
2023-02-20T16:47:13.060Z,42.11
2023-02-20T16:49:41.225Z,41.99
2023-02-20T16:52:33.434Z,41.60
2023-02-20T16:55:03.200Z,41.65
2023-02-20T16:57:32.037Z,41.63
2023-02-20T17:00:01.133Z,41.76
2023-02-20T17:02:31.847Z,41.86
2023-02-20T17:05:00.949Z,41.81
2023-02-20T17:07:31.414Z,41.82
2023-02-20T17:09:59.606Z,41.77
2023-02-20T17:12:28.206Z,41.65
2023-02-20T17:14:58.148Z,41.98
2023-02-20T17:17:27.205Z,42.22
2023-02-20T17:19:56.956Z,42.36
2023-02-20T17:22:26.317Z,42.56
2023-02-20T17:24:56.043Z,42.52
2023-02-20T17:27:24.912Z,43.11
2023-02-20T17:29:53.173Z,42.88
2023-02-20T17:32:21.737Z,43.27
2023-02-20T17:34:50.049Z,43.19
2023-02-20T17:37:18.419Z,43.26
2023-02-20T17:39:46.936Z,43.51
2023-02-20T17:42:15.434Z,43.62
2023-02-20T17:44:43.598Z,43.62
2023-02-20T17:47:13.144Z,43.69
2023-02-20T17:49:42.329Z,43.64
2023-02-20T17:52:11.446Z,43.77
2023-02-20T17:54:41.523Z,43.81
2023-02-20T17:57:09.995Z,43.93
2023-02-20T17:59:39.890Z,43.85
2023-02-20T18:02:09.580Z,43.82
2023-02-20T18:04:37.844Z,43.75
2023-02-20T18:07:07.007Z,43.60
2023-02-20T18:09:35.348Z,43.51
2023-02-20T18:12:04.619Z,43.27
2023-02-20T18:14:32.869Z,43.23
2023-02-20T18:17:01.388Z,43.11
2023-02-20T18:19:29.638Z,42.78
2023-02-20T18:21:59.953Z,42.81
2023-02-20T18:24:30.468Z,42.81
2023-02-20T18:26:59.359Z,42.83
2023-02-20T18:29:29.913Z,42.67
2023-02-20T18:31:59.117Z,43.16
2023-02-20T18:34:30.988Z,43.55
2023-02-20T18:37:00.049Z,43.48
2023-02-20T18:39:28.219Z,43.65
2023-02-20T18:41:58.687Z,43.91
2023-02-20T18:44:27.890Z,43.90
2023-02-20T18:46:57.605Z,44.06
2023-02-20T18:49:25.792Z,43.83
2023-02-20T18:51:54.243Z,44.17
2023-02-20T18:54:32.917Z,44.10
2023-02-20T18:57:03.327Z,44.34
2023-02-20T18:59:31.568Z,44.63
2023-02-20T19:02:03.572Z,44.39
2023-02-20T19:04:33.430Z,44.52
2023-02-20T19:07:03.786Z,44.54
2023-02-20T19:09:38.487Z,44.49
2023-02-20T19:12:07.646Z,44.70
2023-02-20T19:14:36.419Z,44.63
2023-02-20T19:17:04.920Z,44.75
2023-02-20T19:19:34.877Z,44.42
2023-02-20T19:22:03.825Z,44.57
2023-02-20T19:24:32.039Z,44.34
2023-02-20T19:27:00.504Z,44.35
2023-02-20T19:29:28.641Z,44.42
2023-02-20T19:31:57.437Z,44.51
2023-02-20T19:34:25.633Z,44.48
2023-02-20T19:36:54.302Z,44.54
2023-02-20T19:39:22.494Z,44.48
2023-02-20T19:41:51.003Z,44.42
2023-02-20T19:44:19.983Z,45.12
2023-02-20T19:46:51.548Z,45.01
2023-02-20T19:49:20.170Z,45.33
2023-02-20T19:51:51.096Z,45.18
2023-02-20T19:54:29.234Z,44.72
2023-02-20T19:57:01.377Z,44.49
2023-02-20T19:59:33.573Z,44.47
2023-02-20T20:02:04.554Z,44.17
2023-02-20T20:04:33.593Z,43.78
2023-02-20T20:07:03.290Z,43.72
2023-02-20T20:09:37.499Z,43.51
2023-02-20T20:12:31.030Z,43.67
2023-02-20T20:15:00.143Z,43.63
2023-02-20T20:17:28.562Z,43.43
2023-02-20T20:19:59.773Z,43.63
2023-02-20T20:22:30.041Z,43.82
2023-02-20T20:24:59.028Z,43.76
2023-02-20T20:27:27.821Z,43.85
2023-02-20T20:29:56.472Z,43.93
2023-02-20T20:32:25.043Z,43.86
2023-02-20T20:34:55.505Z,43.79
2023-02-20T20:37:26.256Z,44.11
2023-02-20T20:39:56.622Z,43.88
2023-02-20T20:42:27.890Z,44.02
2023-02-20T20:44:57.815Z,43.89
2023-02-20T20:47:29.443Z,44.01
2023-02-20T20:49:58.447Z,43.87
2023-02-20T20:52:27.556Z,44.15
2023-02-20T20:54:57.612Z,43.95
2023-02-20T20:57:29.175Z,43.81
2023-02-20T20:59:59.399Z,44.21
2023-02-20T21:02:28.520Z,44.07
2023-02-20T21:05:09.183Z,44.38
2023-02-20T21:07:40.090Z,44.14
2023-02-20T21:10:09.463Z,44.26
2023-02-20T21:12:39.000Z,44.21
2023-02-20T21:15:08.954Z,44.32
2023-02-20T21:17:38.646Z,44.14
2023-02-20T21:20:08.508Z,44.44
2023-02-20T21:22:37.221Z,44.51
2023-02-20T21:25:06.165Z,44.57
2023-02-20T21:27:34.812Z,44.49
2023-02-20T21:30:04.520Z,44.21
2023-02-20T21:32:33.058Z,43.80
2023-02-20T21:35:01.236Z,44.01
2023-02-20T21:37:29.842Z,43.47
2023-02-20T21:39:57.832Z,43.16
2023-02-20T21:42:45.162Z,42.74
2023-02-20T21:45:13.163Z,42.71
2023-02-20T21:47:41.474Z,42.20
2023-02-20T21:50:09.873Z,42.37
2023-02-20T21:52:38.183Z,42.38
2023-02-20T21:55:10.048Z,42.67
2023-02-20T21:57:38.530Z,42.48
2023-02-20T22:00:08.888Z,42.39
2023-02-20T22:02:38.688Z,42.59
2023-02-20T22:05:08.251Z,42.64
2023-02-20T22:07:55.653Z,42.19
2023-02-20T22:10:42.791Z,42.17
2023-02-20T22:13:29.894Z,42.22
2023-02-20T22:16:16.521Z,42.28
2023-02-20T22:19:03.187Z,42.32
2023-02-20T22:21:49.921Z,42.21
2023-02-20T22:24:38.864Z,42.18
2023-02-20T22:27:27.560Z,42.13
2023-02-20T22:30:14.681Z,42.09
2023-02-20T22:33:01.639Z,42.33
2023-02-20T22:35:48.563Z,42.19
2023-02-20T22:38:35.093Z,42.38
2023-02-20T22:41:22.165Z,42.30
2023-02-20T22:44:09.020Z,42.26
2023-02-20T22:46:56.118Z,42.36
2023-02-20T22:49:42.945Z,42.50
2023-02-20T22:52:30.178Z,42.53
2023-02-20T22:55:16.818Z,42.12
2023-02-20T22:58:03.907Z,42.59
2023-02-20T23:00:50.629Z,42.74
2023-02-20T23:03:37.766Z,42.50
2023-02-20T23:06:24.543Z,42.46
2023-02-20T23:09:11.487Z,42.61
2023-02-20T23:11:58.151Z,42.53
2023-02-20T23:14:45.416Z,42.65
2023-02-20T23:17:36.962Z,42.65
2023-02-20T23:20:28.219Z,42.31
2023-02-20T23:23:15.092Z,42.47
2023-02-20T23:26:02.247Z,42.41
2023-02-20T23:28:48.949Z,42.42
2023-02-20T23:31:36.756Z,42.51
2023-02-20T23:34:23.388Z,42.70
2023-02-20T23:37:12.233Z,42.71
2023-02-20T23:39:58.642Z,42.67
2023-02-20T23:42:45.381Z,42.55
2023-02-20T23:45:31.653Z,42.86
2023-02-20T23:48:18.596Z,42.64
2023-02-20T23:51:04.989Z,43.01
2023-02-20T23:53:56.371Z,42.67
2023-02-20T23:56:43.493Z,42.67
2023-02-20T23:59:31.223Z,42.74
